createdAt,value
2018-11-02T00:02:13.548Z,57.40
2018-11-02T00:04:41.126Z,57.20
2018-11-02T00:07:08.729Z,57.10
2018-11-02T00:09:36.305Z,57.00
2018-11-02T00:12:03.905Z,56.90
2018-11-02T00:14:37.906Z,57.00
2018-11-02T00:17:05.497Z,56.80
2018-11-02T00:19:34.134Z,56.80
2018-11-02T00:22:03.112Z,56.70
2018-11-02T00:24:30.753Z,56.70
2018-11-02T00:26:59.112Z,56.80
2018-11-02T00:29:26.685Z,56.60
2018-11-02T00:31:54.469Z,56.60
2018-11-02T00:34:21.894Z,56.60
2018-11-02T00:36:49.484Z,56.70
2018-11-02T00:39:17.064Z,56.60
2018-11-02T00:41:44.822Z,56.70
2018-11-02T00:44:12.487Z,56.70
2018-11-02T00:46:40.460Z,56.80
2018-11-02T00:49:08.174Z,56.70
2018-11-02T00:51:36.475Z,56.80
2018-11-02T00:54:04.514Z,56.90
2018-11-02T00:56:32.134Z,56.90
2018-11-02T00:58:59.870Z,56.80
2018-11-02T01:01:27.553Z,56.80
2018-11-02T01:03:55.161Z,56.90
2018-11-02T01:06:22.767Z,56.90
2018-11-02T01:08:50.452Z,56.90
2018-11-02T01:11:18.154Z,56.90
2018-11-02T01:13:45.815Z,56.90
2018-11-02T01:16:13.405Z,56.90
2018-11-02T01:18:41.091Z,56.90
2018-11-02T01:21:08.695Z,56.90
2018-11-02T01:23:36.329Z,57.00
2018-11-02T01:26:03.925Z,57.00
2018-11-02T01:28:31.556Z,56.90
2018-11-02T01:30:59.160Z,56.80
2018-11-02T01:33:32.260Z,56.70
2018-11-02T01:35:59.970Z,56.90
2018-11-02T01:38:27.603Z,56.60
2018-11-02T01:40:55.364Z,56.50
2018-11-02T01:43:23.089Z,56.70
2018-11-02T01:45:51.282Z,56.50
2018-11-02T01:48:19.228Z,56.40
2018-11-02T01:50:46.805Z,56.40
2018-11-02T01:53:14.426Z,56.40
2018-11-02T01:55:42.062Z,56.40
2018-11-02T01:58:09.667Z,56.30
2018-11-02T02:00:37.323Z,56.90
2018-11-02T02:03:05.423Z,56.30
2018-11-02T02:05:33.096Z,56.40
2018-11-02T02:08:00.936Z,56.60
2018-11-02T02:10:28.513Z,56.30
2018-11-02T02:12:56.100Z,56.40
2018-11-02T02:15:23.708Z,56.30
2018-11-02T02:17:52.576Z,56.30
2018-11-02T02:20:21.551Z,56.30
2018-11-02T02:22:50.613Z,56.20
2018-11-02T02:25:18.773Z,56.20
2018-11-02T02:27:46.991Z,56.20
2018-11-02T02:30:15.395Z,56.20
2018-11-02T02:32:42.987Z,56.20
2018-11-02T02:35:11.152Z,56.20
2018-11-02T02:37:39.630Z,56.20
2018-11-02T02:40:08.648Z,56.20
2018-11-02T02:42:36.316Z,56.10
2018-11-02T02:45:04.510Z,56.20
2018-11-02T02:47:32.113Z,56.20
2018-11-02T02:49:59.704Z,56.20
2018-11-02T02:52:27.630Z,56.20
2018-11-02T02:54:55.216Z,56.20
2018-11-02T02:57:22.798Z,56.30
2018-11-02T02:59:50.559Z,56.30
2018-11-02T03:02:18.214Z,56.30
2018-11-02T03:04:45.857Z,56.50
2018-11-02T03:07:13.460Z,56.90
2018-11-02T03:09:41.056Z,56.60
2018-11-02T03:12:08.693Z,56.80
2018-11-02T03:14:36.352Z,56.80
2018-11-02T03:17:04.046Z,57.50
2018-11-02T03:19:31.847Z,56.60
2018-11-02T03:21:59.732Z,56.50
2018-11-02T03:24:27.325Z,56.40
2018-11-02T03:26:54.906Z,56.20
2018-11-02T03:29:22.472Z,56.20
2018-11-02T03:31:50.115Z,56.00
2018-11-02T03:34:17.785Z,55.90
2018-11-02T03:36:45.482Z,56.60
2018-11-02T03:39:13.469Z,55.70
2018-11-02T03:41:41.569Z,55.70
2018-11-02T03:44:09.153Z,55.80
2018-11-02T03:46:36.738Z,55.80
2018-11-02T03:49:04.514Z,55.70
2018-11-02T03:51:32.084Z,55.70
2018-11-02T03:54:01.330Z,55.70
2018-11-02T03:56:30.100Z,55.80
2018-11-02T03:58:57.784Z,55.80
2018-11-02T04:01:25.420Z,55.70
2018-11-02T04:03:53.020Z,55.70
2018-11-02T04:06:20.618Z,55.70
2018-11-02T04:08:48.192Z,55.70
2018-11-02T04:11:15.861Z,55.70
2018-11-02T04:13:43.427Z,55.70
2018-11-02T04:16:11.037Z,55.70
2018-11-02T04:18:38.631Z,55.70
2018-11-02T04:21:06.410Z,55.70
2018-11-02T04:23:33.993Z,55.70
2018-11-02T04:26:01.622Z,55.70
2018-11-02T04:28:29.206Z,55.70
2018-11-02T04:30:56.867Z,55.70
2018-11-02T04:33:24.461Z,55.70
2018-11-02T04:35:52.403Z,55.70
2018-11-02T04:38:19.973Z,55.60
2018-11-02T04:40:47.547Z,55.60
2018-11-02T04:43:15.138Z,55.70
2018-11-02T04:45:42.713Z,55.90
2018-11-02T04:48:11.591Z,56.10
2018-11-02T04:50:39.936Z,55.80
2018-11-02T04:53:07.526Z,55.60
2018-11-02T04:55:35.158Z,55.50
2018-11-02T04:58:02.739Z,55.40
2018-11-02T05:00:30.624Z,55.30
2018-11-02T05:02:58.411Z,55.90
2018-11-02T05:05:26.081Z,55.30
2018-11-02T05:07:53.678Z,55.40
2018-11-02T05:10:21.279Z,55.40
2018-11-02T05:12:48.954Z,55.40
2018-11-02T05:15:16.512Z,55.40
2018-11-02T05:17:44.096Z,55.40
2018-11-02T05:20:11.713Z,55.40
2018-11-02T05:22:39.270Z,55.40
2018-11-02T05:25:07.284Z,55.40
2018-11-02T05:27:34.957Z,55.30
2018-11-02T05:30:02.542Z,55.30
2018-11-02T05:32:30.157Z,55.20
2018-11-02T05:34:57.761Z,55.20
2018-11-02T05:37:25.423Z,55.30
2018-11-02T05:39:53.005Z,55.20
2018-11-02T05:42:20.994Z,55.70
2018-11-02T05:44:49.093Z,55.20
2018-11-02T05:47:16.819Z,55.00
2018-11-02T05:49:44.340Z,55.00
2018-11-02T05:52:11.893Z,55.00
2018-11-02T05:54:39.698Z,55.00
2018-11-02T05:57:07.570Z,55.00
2018-11-02T05:59:35.159Z,55.00
2018-11-02T06:02:02.930Z,55.00
2018-11-02T06:04:30.515Z,55.10
2018-11-02T06:06:58.093Z,55.20
2018-11-02T06:09:25.687Z,51.30
2018-11-02T06:11:53.260Z,50.50
2018-11-02T06:14:20.874Z,53.40
2018-11-02T06:16:48.598Z,53.70
2018-11-02T06:19:16.620Z,53.00
2018-11-02T06:21:44.365Z,52.80
2018-11-02T06:24:12.025Z,53.00
2018-11-02T06:26:40.186Z,52.70
2018-11-02T06:29:07.750Z,52.50
2018-11-02T06:31:35.307Z,52.70
2018-11-02T06:34:02.857Z,52.70
2018-11-02T06:36:30.509Z,52.70
2018-11-02T06:38:58.196Z,52.80
2018-11-02T06:41:25.737Z,52.80
2018-11-02T06:43:53.331Z,52.80
2018-11-02T06:46:20.985Z,52.80
2018-11-02T06:48:48.608Z,52.80
2018-11-02T06:51:16.202Z,52.90
2018-11-02T06:53:43.768Z,53.00
2018-11-02T06:56:11.638Z,53.00
2018-11-02T06:58:39.370Z,52.90
2018-11-02T07:01:07.228Z,53.10
2018-11-02T07:03:34.857Z,52.90
2018-11-02T07:06:02.440Z,52.90
2018-11-02T07:08:30.014Z,53.00
2018-11-02T07:10:57.590Z,53.30
2018-11-02T07:13:25.167Z,53.50
2018-11-02T07:15:52.861Z,53.60
2018-11-02T07:18:21.444Z,54.10
2018-11-02T07:20:49.154Z,53.40
2018-11-02T07:23:16.758Z,53.50
2018-11-02T07:25:44.357Z,53.50
2018-11-02T07:28:11.959Z,53.60
2018-11-02T07:30:39.589Z,53.80
2018-11-02T07:33:07.163Z,54.20
2018-11-02T07:35:34.766Z,53.30
2018-11-02T07:38:02.470Z,53.20
2018-11-02T07:40:30.041Z,53.20
2018-11-02T07:42:57.646Z,53.30
2018-11-02T07:45:25.223Z,53.20
2018-11-02T07:47:53.189Z,53.10
2018-11-02T07:50:20.761Z,53.10
2018-11-02T07:52:48.378Z,53.40
2018-11-02T07:55:16.032Z,53.40
2018-11-02T07:57:43.647Z,53.40
2018-11-02T08:00:12.393Z,53.40
2018-11-02T08:02:44.291Z,53.40
2018-11-02T08:05:12.863Z,53.40
2018-11-02T08:07:40.459Z,53.50
2018-11-02T08:10:08.619Z,53.80
2018-11-02T08:12:36.730Z,53.90
2018-11-02T08:15:04.996Z,53.70
2018-11-02T08:17:32.658Z,53.60
2018-11-02T08:20:00.226Z,53.80
2018-11-02T08:22:27.894Z,53.70
2018-11-02T08:24:55.817Z,53.80
2018-11-02T08:27:23.398Z,53.80
2018-11-02T08:29:51.110Z,53.80
2018-11-02T08:32:18.698Z,54.00
2018-11-02T08:34:46.626Z,54.20
2018-11-02T08:37:14.402Z,54.30
2018-11-02T08:39:41.983Z,54.20
2018-11-02T08:42:09.731Z,54.00
2018-11-02T08:44:37.301Z,53.90
2018-11-02T08:47:05.451Z,53.80
2018-11-02T08:49:33.084Z,53.80
2018-11-02T08:52:00.662Z,53.80
2018-11-02T08:54:28.231Z,53.70
2018-11-02T08:56:55.949Z,53.70
2018-11-02T08:59:23.629Z,53.70
2018-11-02T09:01:51.107Z,54.30
2018-11-02T09:04:18.701Z,53.70
2018-11-02T09:06:46.372Z,53.60
2018-11-02T09:09:13.968Z,53.70
2018-11-02T09:11:41.573Z,53.70
2018-11-02T09:14:09.151Z,53.70
2018-11-02T09:16:36.729Z,53.70
2018-11-02T09:19:04.609Z,53.80
2018-11-02T09:21:32.147Z,53.80
2018-11-02T09:23:59.793Z,53.70
2018-11-02T09:26:27.475Z,53.70
2018-11-02T09:28:55.351Z,53.70
2018-11-02T09:31:22.967Z,53.70
2018-11-02T09:33:50.565Z,53.70
2018-11-02T09:36:18.156Z,53.60
2018-11-02T09:38:46.062Z,53.60
2018-11-02T09:41:13.650Z,53.60
2018-11-02T09:43:41.272Z,53.70
2018-11-02T09:46:09.007Z,53.70
2018-11-02T09:48:36.578Z,53.80
2018-11-02T09:51:04.201Z,54.10
2018-11-02T09:53:31.789Z,54.30
2018-11-02T09:55:59.427Z,54.20
2018-11-02T09:58:27.033Z,53.80
2018-11-02T10:00:54.787Z,53.80
2018-11-02T10:03:22.348Z,53.70
2018-11-02T10:05:49.944Z,53.60
2018-11-02T10:08:17.610Z,53.60
2018-11-02T10:10:45.131Z,53.50
2018-11-02T10:13:12.735Z,53.40
2018-11-02T10:15:40.327Z,54.10
2018-11-02T10:18:07.909Z,53.50
2018-11-02T10:20:35.499Z,53.40
2018-11-02T10:23:03.068Z,53.40
2018-11-02T10:25:30.715Z,53.20
2018-11-02T10:27:58.424Z,53.20
2018-11-02T10:30:25.959Z,53.20
2018-11-02T10:32:54.666Z,53.30
2018-11-02T10:35:22.344Z,54.00
2018-11-02T10:37:50.412Z,53.50
2018-11-02T10:40:18.836Z,53.50
2018-11-02T10:42:50.822Z,53.70
2018-11-02T10:45:18.486Z,53.60
2018-11-02T10:47:46.754Z,53.60
2018-11-02T10:50:14.347Z,53.70
2018-11-02T10:52:41.964Z,54.30
2018-11-02T10:55:09.573Z,53.80
2018-11-02T10:57:37.325Z,53.80
2018-11-02T11:00:06.128Z,53.80
2018-11-02T11:02:38.087Z,53.80
2018-11-02T11:05:06.420Z,54.00
2018-11-02T11:07:34.760Z,54.20
2018-11-02T11:10:02.346Z,54.40
2018-11-02T11:12:30.636Z,54.30
2018-11-02T11:14:58.233Z,54.10
2018-11-02T11:17:25.854Z,54.00
2018-11-02T11:19:53.459Z,53.90
2018-11-02T11:22:21.057Z,53.90
2018-11-02T11:24:48.656Z,54.50
2018-11-02T11:27:17.216Z,54.40
2018-11-02T11:29:45.003Z,53.80
2018-11-02T11:32:12.604Z,53.80
2018-11-02T11:34:40.193Z,53.70
2018-11-02T11:37:07.782Z,53.60
2018-11-02T11:39:35.413Z,53.50
2018-11-02T11:42:03.033Z,53.40
2018-11-02T11:44:30.635Z,53.30
2018-11-02T11:46:58.235Z,53.30
2018-11-02T11:49:25.894Z,53.30
2018-11-02T11:51:53.587Z,53.30
2018-11-02T11:54:21.444Z,53.30
2018-11-02T11:56:50.074Z,53.30
2018-11-02T11:59:17.658Z,53.30
2018-11-02T12:01:45.272Z,53.20
2018-11-02T12:04:13.008Z,53.40
2018-11-02T12:06:40.906Z,53.60
2018-11-02T12:09:09.041Z,53.50
2018-11-02T12:11:36.568Z,53.60
2018-11-02T12:14:04.168Z,53.60
2018-11-02T12:16:31.798Z,53.60
2018-11-02T12:18:59.395Z,53.70
2018-11-02T12:21:27.005Z,53.80
2018-11-02T12:23:54.590Z,53.80
2018-11-02T12:26:22.197Z,54.00
2018-11-02T12:28:49.863Z,54.30
2018-11-02T12:31:17.355Z,54.20
2018-11-02T12:33:44.936Z,53.90
2018-11-02T12:36:12.529Z,53.80
2018-11-02T12:38:40.445Z,53.80
2018-11-02T12:41:08.057Z,53.70
2018-11-02T12:43:35.723Z,53.70
2018-11-02T12:46:03.785Z,53.50
2018-11-02T12:48:31.438Z,53.40
2018-11-02T12:50:59.025Z,53.30
2018-11-02T12:53:26.672Z,53.20
2018-11-02T12:55:54.392Z,53.20
2018-11-02T12:58:22.037Z,53.10
2018-11-02T13:00:49.699Z,53.10
2018-11-02T13:03:17.302Z,52.90
2018-11-02T13:05:44.921Z,53.00
2018-11-02T13:08:12.520Z,52.80
2018-11-02T13:10:40.144Z,53.40
2018-11-02T13:13:07.766Z,54.30
2018-11-02T13:15:36.472Z,53.90
2018-11-02T13:18:04.111Z,54.10
2018-11-02T13:20:31.695Z,54.30
2018-11-02T13:22:59.300Z,54.40
2018-11-02T13:25:26.974Z,54.50
2018-11-02T13:27:55.339Z,54.60
2018-11-02T13:30:23.063Z,54.60
2018-11-02T13:32:50.558Z,54.70
2018-11-02T13:35:19.476Z,54.70
2018-11-02T13:37:47.720Z,54.70
2018-11-02T13:40:16.429Z,55.40
2018-11-02T13:42:44.251Z,55.00
2018-11-02T13:45:13.215Z,55.00
2018-11-02T13:47:41.526Z,55.00
2018-11-02T13:50:09.436Z,55.00
2018-11-02T13:52:37.024Z,55.00
2018-11-02T13:55:05.405Z,55.00
2018-11-02T13:57:33.008Z,55.00
2018-11-02T14:00:00.698Z,55.00
2018-11-02T14:02:28.306Z,55.00
2018-11-02T14:04:55.916Z,55.00
2018-11-02T14:07:23.579Z,55.00
2018-11-02T14:09:51.368Z,55.00
2018-11-02T14:12:19.049Z,55.00
2018-11-02T14:14:46.734Z,55.00
2018-11-02T14:17:14.409Z,55.00
2018-11-02T14:19:41.989Z,55.00
2018-11-02T14:22:09.583Z,55.00
2018-11-02T14:24:37.169Z,55.20
2018-11-02T14:27:04.797Z,55.10
2018-11-02T14:29:32.787Z,55.20
2018-11-02T14:32:00.307Z,55.10
2018-11-02T14:34:28.043Z,55.30
2018-11-02T14:36:55.663Z,55.10
2018-11-02T14:39:23.271Z,55.20
2018-11-02T14:41:50.856Z,55.20
2018-11-02T14:44:18.612Z,55.10
2018-11-02T14:46:46.209Z,55.20
2018-11-02T14:49:13.809Z,55.10
2018-11-02T14:51:41.502Z,55.70
2018-11-02T14:54:09.097Z,55.10
2018-11-02T14:56:36.686Z,55.00
2018-11-02T14:59:04.297Z,55.10
2018-11-02T15:01:31.873Z,55.10
2018-11-02T15:04:00.105Z,55.10
2018-11-02T15:06:27.944Z,55.10
2018-11-02T15:08:55.830Z,55.10
2018-11-02T15:11:23.666Z,55.10
2018-11-02T15:13:51.376Z,55.00
2018-11-02T15:16:18.982Z,55.10
2018-11-02T15:18:46.537Z,55.10
2018-11-02T15:21:14.194Z,55.10
2018-11-02T15:23:42.762Z,55.00
2018-11-02T15:26:10.388Z,55.10
2018-11-02T15:28:40.743Z,55.50
2018-11-02T15:31:12.181Z,55.10
2018-11-02T15:33:39.894Z,55.10
2018-11-02T15:36:07.890Z,55.20
2018-11-02T15:38:35.500Z,55.20
2018-11-02T15:41:03.096Z,55.20
2018-11-02T15:43:30.786Z,55.20
2018-11-02T15:45:58.601Z,55.20
2018-11-02T15:48:26.362Z,55.30
2018-11-02T15:50:53.954Z,55.30
2018-11-02T15:53:21.578Z,55.00
2018-11-02T15:55:49.149Z,55.00
2018-11-02T15:58:18.902Z,55.00
2018-11-02T16:00:46.561Z,55.00
2018-11-02T16:03:14.870Z,54.70
2018-11-02T16:05:42.459Z,54.70
2018-11-02T16:08:10.152Z,54.80
2018-11-02T16:10:37.734Z,54.60
2018-11-02T16:13:06.614Z,54.50
2018-11-02T16:15:34.681Z,54.40
2018-11-02T16:18:02.443Z,54.20
2018-11-02T16:20:30.082Z,54.30
2018-11-02T16:22:57.856Z,54.10
2018-11-02T16:25:25.558Z,54.10
2018-11-02T16:27:54.115Z,54.10
2018-11-02T16:30:21.802Z,54.00
2018-11-02T16:32:49.373Z,54.00
2018-11-02T16:35:18.238Z,53.90
2018-11-02T16:37:48.186Z,53.90
2018-11-02T16:40:16.729Z,53.90
2018-11-02T16:42:46.101Z,53.90
2018-11-02T16:45:14.402Z,53.90
2018-11-02T16:47:42.600Z,54.10
2018-11-02T16:50:11.393Z,54.20
2018-11-02T16:52:38.971Z,54.10
2018-11-02T16:55:07.848Z,54.00
2018-11-02T16:57:37.796Z,53.90
2018-11-02T17:00:07.286Z,53.90
2018-11-02T17:02:34.981Z,53.80
2018-11-02T17:05:02.749Z,53.80
2018-11-02T17:07:31.165Z,53.70
2018-11-02T17:09:58.757Z,53.60
2018-11-02T17:12:26.570Z,53.50
2018-11-02T17:14:54.156Z,53.50
2018-11-02T17:17:21.754Z,53.40
2018-11-02T17:19:49.321Z,53.40
2018-11-02T17:22:17.057Z,53.30
2018-11-02T17:24:44.636Z,53.20
2018-11-02T17:27:12.255Z,53.30
2018-11-02T17:29:39.856Z,53.40
2018-11-02T17:32:07.584Z,53.10
2018-11-02T17:34:35.257Z,53.70
2018-11-02T17:37:02.809Z,53.00
2018-11-02T17:39:30.416Z,52.90
2018-11-02T17:41:57.965Z,53.00
2018-11-02T17:44:25.525Z,52.90
2018-11-02T17:46:53.338Z,53.00
2018-11-02T17:49:20.908Z,53.60
2018-11-02T17:51:48.514Z,53.00
2018-11-02T17:54:16.129Z,53.10
2018-11-02T17:56:45.559Z,53.10
2018-11-02T17:59:13.913Z,53.20
2018-11-02T18:01:43.043Z,53.30
2018-11-02T18:04:10.696Z,53.30
2018-11-02T18:06:38.514Z,53.40
2018-11-02T18:09:08.528Z,53.40
2018-11-02T18:11:39.305Z,53.40
2018-11-02T18:14:07.581Z,54.20
2018-11-02T18:16:35.468Z,53.70
2018-11-02T18:19:03.450Z,54.00
2018-11-02T18:21:31.690Z,54.10
2018-11-02T18:23:59.927Z,53.80
2018-11-02T18:26:29.463Z,53.90
2018-11-02T18:28:58.551Z,53.70
2018-11-02T18:31:26.644Z,53.60
2018-11-02T18:33:54.741Z,53.50
2018-11-02T18:36:22.779Z,53.30
2018-11-02T18:38:50.882Z,53.10
2018-11-02T18:41:19.059Z,53.00
2018-11-02T18:43:47.204Z,53.00
2018-11-02T18:46:15.567Z,52.90
2018-11-02T18:48:43.573Z,52.80
2018-11-02T18:51:11.552Z,52.70
2018-11-02T18:53:40.312Z,52.80
2018-11-02T18:56:08.687Z,52.80
2018-11-02T18:58:36.605Z,52.70
2018-11-02T19:01:04.601Z,52.80
2018-11-02T19:03:32.531Z,53.00
2018-11-02T19:06:00.388Z,53.10
2018-11-02T19:08:28.694Z,53.00
2018-11-02T19:10:56.779Z,53.00
2018-11-02T19:13:24.952Z,53.00
2018-11-02T19:15:52.991Z,52.90
2018-11-02T19:18:21.228Z,53.10
2018-11-02T19:20:49.429Z,53.30
2018-11-02T19:23:17.607Z,53.90
2018-11-02T19:25:45.556Z,53.60
2018-11-02T19:28:13.812Z,54.00
2018-11-02T19:30:41.880Z,54.10
2018-11-02T19:33:10.081Z,54.30
2018-11-02T19:35:39.260Z,54.30
2018-11-02T19:38:07.807Z,54.70
2018-11-02T19:40:36.613Z,54.30
2018-11-02T19:43:05.006Z,54.80
2018-11-02T19:45:34.124Z,54.70
2018-11-02T19:48:03.020Z,54.80
2018-11-02T19:50:30.790Z,54.60
2018-11-02T19:52:58.363Z,54.30
2018-11-02T19:55:26.197Z,54.00
2018-11-02T19:57:53.872Z,53.90
2018-11-02T20:00:21.466Z,53.70
2018-11-02T20:02:49.270Z,53.50
2018-11-02T20:05:18.160Z,53.40
2018-11-02T20:07:45.765Z,53.30
2018-11-02T20:10:14.275Z,53.80
2018-11-02T20:12:42.519Z,53.10
2018-11-02T20:15:11.241Z,53.00
2018-11-02T20:17:39.579Z,53.00
2018-11-02T20:20:07.897Z,53.00
2018-11-02T20:22:36.952Z,53.00
2018-11-02T20:25:05.123Z,53.00
2018-11-02T20:27:32.827Z,52.90
2018-11-02T20:30:01.367Z,52.90
2018-11-02T20:32:29.074Z,52.80
2018-11-02T20:34:57.078Z,52.80
2018-11-02T20:37:25.025Z,52.80
2018-11-02T20:39:52.860Z,52.80
2018-11-02T20:42:20.505Z,52.80
2018-11-02T20:44:48.201Z,52.80
2018-11-02T20:47:15.772Z,52.80
2018-11-02T20:49:43.469Z,52.80
2018-11-02T20:52:11.212Z,52.70
2018-11-02T20:54:38.812Z,52.70
2018-11-02T20:57:06.401Z,52.60
2018-11-02T20:59:33.982Z,52.60
2018-11-02T21:02:01.584Z,52.70
2018-11-02T21:04:29.249Z,53.30
2018-11-02T21:06:57.146Z,52.80
2018-11-02T21:09:25.255Z,52.80
2018-11-02T21:11:52.628Z,52.80
2018-11-02T21:14:20.293Z,52.80
2018-11-02T21:16:47.916Z,52.90
2018-11-02T21:19:15.516Z,53.30
2018-11-02T21:21:43.197Z,53.50
2018-11-02T21:24:10.898Z,53.60
2018-11-02T21:26:39.575Z,53.80
2018-11-02T21:29:07.161Z,54.00
2018-11-02T21:31:34.764Z,53.80
2018-11-02T21:34:02.419Z,53.60
2018-11-02T21:36:30.004Z,53.40
2018-11-02T21:38:57.906Z,53.30
2018-11-02T21:41:25.638Z,53.10
2018-11-02T21:43:53.366Z,53.00
2018-11-02T21:46:21.017Z,53.00
2018-11-02T21:48:48.609Z,53.00
2018-11-02T21:51:16.204Z,53.00
2018-11-02T21:53:43.791Z,52.80
2018-11-02T21:56:11.427Z,52.80
2018-11-02T21:58:39.286Z,52.80
2018-11-02T22:01:06.922Z,52.80
2018-11-02T22:03:34.496Z,53.10
2018-11-02T22:06:02.157Z,52.70
2018-11-02T22:08:29.651Z,52.70
2018-11-02T22:10:57.240Z,52.70
2018-11-02T22:13:24.878Z,52.60
2018-11-02T22:15:52.455Z,52.50
2018-11-02T22:18:20.032Z,52.50
2018-11-02T22:20:47.819Z,52.40
2018-11-02T22:23:15.408Z,52.40
2018-11-02T22:25:42.985Z,52.30
2018-11-02T22:28:10.558Z,52.30
2018-11-02T22:30:38.213Z,52.20
2018-11-02T22:33:05.829Z,52.20
2018-11-02T22:35:33.411Z,52.20
2018-11-02T22:38:00.994Z,52.20
2018-11-02T22:40:28.674Z,52.20
2018-11-02T22:42:56.242Z,52.20
2018-11-02T22:45:23.828Z,52.20
2018-11-02T22:47:56.907Z,52.20
2018-11-02T22:50:24.464Z,52.20
2018-11-02T22:52:52.094Z,52.60
2018-11-02T22:55:19.659Z,52.50
2018-11-02T22:57:47.235Z,52.50
2018-11-02T23:00:16.229Z,52.30
2018-11-02T23:02:44.811Z,52.20
2018-11-02T23:05:12.789Z,52.00
2018-11-02T23:07:40.473Z,52.00
2018-11-02T23:10:08.352Z,51.90
2018-11-02T23:12:35.954Z,51.90
2018-11-02T23:15:03.558Z,51.90
2018-11-02T23:17:31.148Z,51.90
2018-11-02T23:19:58.739Z,51.90
2018-11-02T23:22:26.312Z,52.20
2018-11-02T23:24:53.901Z,51.80
2018-11-02T23:27:21.484Z,51.80
2018-11-02T23:29:49.420Z,51.80
2018-11-02T23:32:17.118Z,51.80
2018-11-02T23:34:44.702Z,51.80
2018-11-02T23:37:12.286Z,51.70
2018-11-02T23:39:40.153Z,51.60
2018-11-02T23:42:07.920Z,51.60
2018-11-02T23:44:35.721Z,51.50
2018-11-02T23:47:03.306Z,51.50
2018-11-02T23:49:30.903Z,51.40
2018-11-02T23:51:58.828Z,51.40
2018-11-02T23:54:26.509Z,51.40
2018-11-02T23:56:54.101Z,51.40
2018-11-02T23:59:21.695Z,51.30
